Time;durP1;ratioP1;P1;durP2;ratioP2;P2;SDS_P1;SDS_P2;PMS_P1;PMS_P2;Temp;Humidity;BMP_temperature;BMP_pressure;BME280_temperature;BME280_humidity;BME280_pressure;Samples;Min_cycle;Max_cycle;Signal;HPM_P1;HPM_P2
2022/04/13 00:02:39;;;;;;;11.70;5.30;;;;;6.10;96177.00;;;;8327757;28;20749;-70
2022/04/13 00:06:42;;;;;;;8.60;5.30;;;;;6.00;96176.00;;;;8325943;28;21371;-68
2022/04/13 00:10:45;;;;;;;11.27;5.70;;;;;5.90;96176.00;;;;8326444;28;20228;-69
2022/04/13 00:14:50;;;;;;;11.70;5.47;;;;;5.80;96173.00;;;;8322485;28;20652;-68
2022/04/13 00:18:53;;;;;;;8.40;5.30;;;;;5.70;96165.00;;;;8336509;28;20248;-69
2022/04/13 00:22:56;;;;;;;9.60;5.37;;;;;5.60;96171.00;;;;8337353;28;20288;-68
2022/04/13 00:26:59;;;;;;;10.13;5.63;;;;;5.50;96174.00;;;;8328403;28;20235;-70
2022/04/13 00:31:04;;;;;;;8.50;5.27;;;;;5.50;96173.00;;;;8316863;28;20222;-69
2022/04/13 00:35:08;;;;;;;12.00;5.60;;;;;5.30;96175.00;;;;8327466;28;20642;-70
2022/04/13 00:39:12;;;;;;;9.43;5.20;;;;;5.30;96174.00;;;;8327670;28;20332;-68
2022/04/13 00:43:15;;;;;;;9.77;5.73;;;;;5.30;96170.00;;;;8313676;28;20226;-69
2022/04/13 00:47:20;;;;;;;9.17;5.50;;;;;5.20;96184.00;;;;8320225;28;20816;-70
2022/04/13 00:51:23;;;;;;;8.63;5.60;;;;;5.20;96171.00;;;;8316465;28;20238;-70
2022/04/13 00:55:27;;;;;;;9.83;5.43;;;;;5.10;96170.00;;;;8316732;28;20234;-71
2022/04/13 00:59:32;;;;;;;12.70;6.47;;;;;5.00;96169.00;;;;8323078;28;20235;-72
2022/04/13 01:03:37;;;;;;;9.20;5.73;;;;;4.90;96170.00;;;;8319179;28;20234;-69
2022/04/13 01:07:42;;;;;;;12.93;6.67;;;;;4.80;96174.00;;;;8313690;28;20678;-70
2022/04/13 01:11:45;;;;;;;8.20;5.60;;;;;4.70;96160.00;;;;8321047;28;20230;-71
2022/04/13 01:15:49;;;;;;;10.23;5.83;;;;;4.60;96162.00;;;;8319357;28;20221;-70
2022/04/13 01:19:54;;;;;;;14.00;6.30;;;;;4.60;96163.00;;;;8317509;28;20867;-69
2022/04/13 01:23:58;;;;;;;16.17;6.77;;;;;4.70;96160.00;;;;8321040;28;20234;-72
2022/04/13 01:28:02;;;;;;;8.93;5.70;;;;;4.70;96156.00;;;;8326548;28;20229;-70
2022/04/13 01:32:06;;;;;;;14.13;5.87;;;;;4.70;96152.00;;;;8320153;28;20229;-70
2022/04/13 01:36:10;;;;;;;8.83;5.30;;;;;4.80;96158.00;;;;8315392;28;20238;-69
2022/04/13 01:40:15;;;;;;;9.90;5.83;;;;;4.80;96154.00;;;;8319759;28;20238;-68
2022/04/13 01:44:18;;;;;;;9.90;5.17;;;;;4.80;96157.00;;;;8322918;28;20231;-68
2022/04/13 01:48:22;;;;;;;10.30;5.40;;;;;4.70;96159.00;;;;8318469;28;20231;-68
2022/04/13 01:52:25;;;;;;;12.50;5.57;;;;;4.70;96162.00;;;;8327326;28;20281;-68
2022/04/13 01:56:29;;;;;;;10.13;6.00;;;;;4.60;96160.00;;;;8320517;28;20249;-69
2022/04/13 02:00:33;;;;;;;10.17;5.80;;;;;4.50;96169.00;;;;8327066;28;20213;-70
2022/04/13 02:04:36;;;;;;;8.70;5.20;;;;;4.50;96163.00;;;;8317122;28;20316;-71
2022/04/13 02:08:39;;;;;;;11.07;6.00;;;;;4.50;96171.00;;;;8317120;28;20314;-72
2022/04/13 02:12:44;;;;;;;9.23;6.00;;;;;4.40;96158.00;;;;8325331;28;20228;-71
2022/04/13 02:16:48;;;;;;;8.53;5.97;;;;;4.30;96151.00;;;;8321091;28;20308;-71
2022/04/13 02:20:51;;;;;;;12.83;5.87;;;;;4.20;96152.00;;;;8317904;28;20230;-74
2022/04/13 02:24:54;;;;;;;7.90;5.20;;;;;4.20;96151.00;;;;8319753;28;20313;-72
2022/04/13 02:28:59;;;;;;;10.87;5.77;;;;;4.20;96160.00;;;;8327189;28;20317;-73
2022/04/13 02:33:02;;;;;;;9.07;5.60;;;;;4.20;96150.00;;;;8315265;28;20435;-73
2022/04/13 02:37:06;;;;;;;9.90;5.70;;;;;4.20;96150.00;;;;8319613;28;20235;-73
2022/04/13 02:41:09;;;;;;;7.70;5.53;;;;;4.20;96150.00;;;;8322562;28;20313;-73
2022/04/13 02:45:14;;;;;;;8.40;5.73;;;;;4.20;96151.00;;;;8323692;28;20995;-72
2022/04/13 02:49:17;;;;;;;8.67;5.53;;;;;4.10;96152.00;;;;8318502;28;20225;-73
2022/04/13 02:53:22;;;;;;;11.17;5.70;;;;;4.10;96149.00;;;;8319622;28;20298;-72
2022/04/13 02:57:25;;;;;;;9.90;6.07;;;;;4.10;96151.00;;;;8317449;28;20234;-73
2022/04/13 03:05:44;;;;;;;7.90;5.50;;;;;4.00;96155.00;;;;8270324;28;20224;-73
2022/04/13 03:09:47;;;;;;;11.00;5.97;;;;;4.00;96154.00;;;;8281090;28;20670;-73
2022/04/13 03:13:50;;;;;;;12.43;5.50;;;;;4.00;96149.00;;;;8279883;28;20234;-73
2022/04/13 03:17:53;;;;;;;9.93;5.77;;;;;4.00;96158.00;;;;8282807;28;20253;-71
2022/04/13 03:21:58;;;;;;;11.33;6.07;;;;;4.00;96162.00;;;;8281210;28;20258;-72
2022/04/13 03:26:01;;;;;;;12.43;5.57;;;;;4.10;96162.00;;;;8282333;28;20257;-71
2022/04/13 03:30:06;;;;;;;8.73;5.53;;;;;4.10;96164.00;;;;8282081;28;20233;-72
2022/04/13 03:34:09;;;;;;;13.37;5.67;;;;;4.10;96161.00;;;;8283865;28;20238;-72
2022/04/13 03:38:14;;;;;;;10.73;4.93;;;;;4.10;96158.00;;;;8285886;28;20239;-73
2022/04/13 03:42:17;;;;;;;9.50;5.83;;;;;4.10;96161.00;;;;8282727;28;20238;-71
2022/04/13 03:46:20;;;;;;;12.03;6.17;;;;;4.10;96160.00;;;;8282781;28;20914;-73
2022/04/13 03:50:23;;;;;;;10.40;5.30;;;;;4.20;96165.00;;;;8283965;28;20242;-73
2022/04/13 03:54:28;;;;;;;12.97;6.10;;;;;4.40;96170.00;;;;8288561;28;20230;-72
2022/04/13 03:58:32;;;;;;;11.67;5.80;;;;;4.50;96164.00;;;;8288342;28;20273;-72
2022/04/13 04:02:37;;;;;;;13.63;5.50;;;;;4.50;96162.00;;;;8287818;28;20588;-72
2022/04/13 04:06:40;;;;;;;9.87;6.00;;;;;4.60;96159.00;;;;8288359;28;20993;-72
2022/04/13 04:10:45;;;;;;;13.57;5.70;;;;;4.70;96161.00;;;;8287499;28;20671;-73
2022/04/13 04:14:48;;;;;;;9.60;5.07;;;;;4.70;96163.00;;;;8288685;28;20217;-72
2022/04/13 04:18:52;;;;;;;8.63;5.13;;;;;4.80;96162.00;;;;8288920;28;20265;-72
2022/04/13 04:22:55;;;;;;;7.90;5.23;;;;;4.80;96168.00;;;;8287584;28;20690;-72
2022/04/13 04:27:00;;;;;;;11.53;5.50;;;;;4.80;96174.00;;;;8288798;28;20226;-73
2022/04/13 04:31:03;;;;;;;9.90;5.47;;;;;4.80;96180.00;;;;8283905;28;20234;-72
2022/04/13 04:35:08;;;;;;;9.90;5.30;;;;;4.80;96183.00;;;;8287310;28;20227;-73
2022/04/13 04:39:11;;;;;;;10.53;4.90;;;;;4.80;96184.00;;;;8287078;28;20310;-73
2022/04/13 04:43:16;;;;;;;11.80;5.53;;;;;4.70;96195.00;;;;8286515;28;20266;-73
2022/04/13 04:47:19;;;;;;;9.83;5.43;;;;;4.70;96183.00;;;;8284190;28;20769;-73
2022/04/13 04:51:22;;;;;;;15.33;7.03;;;;;4.60;96180.00;;;;8291381;28;20847;-73
2022/04/13 04:55:25;;;;;;;14.27;5.97;;;;;4.60;96178.00;;;;8272851;28;20689;-70
2022/04/13 04:59:30;;;;;;;11.73;6.30;;;;;4.80;96185.00;;;;8285187;28;20222;-72
2022/04/13 05:03:33;;;;;;;11.70;6.10;;;;;5.10;96191.00;;;;8282586;28;20233;-71
2022/04/13 05:07:37;;;;;;;9.77;5.50;;;;;5.20;96192.00;;;;8280542;28;20323;-72
2022/04/13 05:11:40;;;;;;;7.20;4.67;;;;;5.30;96187.00;;;;8285447;28;20251;-71
2022/04/13 05:15:45;;;;;;;10.23;4.90;;;;;5.40;96197.00;;;;8289774;28;20252;-70
2022/04/13 05:19:48;;;;;;;7.50;4.73;;;;;5.30;96204.00;;;;8284711;28;20235;-72
2022/04/13 05:23:51;;;;;;;10.97;5.23;;;;;5.40;96217.00;;;;8280173;28;20235;-71
2022/04/13 05:27:55;;;;;;;10.60;5.00;;;;;5.50;96212.00;;;;8283089;28;20259;-69
2022/04/13 05:31:59;;;;;;;10.57;5.47;;;;;5.50;96230.00;;;;8283937;28;20227;-70
2022/04/13 05:36:07;;;;;;;9.97;5.43;;;;;5.60;96230.00;;;;8288998;28;20350;-71
2022/04/13 05:40:12;;;;;;;8.63;5.00;;;;;5.70;96229.00;;;;8284228;28;20243;-71
2022/04/13 05:44:15;;;;;;;9.53;4.97;;;;;5.90;96235.00;;;;8288066;28;20348;-71
2022/04/13 05:48:20;;;;;;;7.87;5.13;;;;;6.10;96237.00;;;;8274052;28;20688;-71
2022/04/13 05:52:23;;;;;;;11.60;5.70;;;;;6.40;96238.00;;;;8282012;28;20226;-71
2022/04/13 05:56:27;;;;;;;10.97;5.53;;;;;6.70;96254.00;;;;8281900;28;20339;-70
2022/04/13 06:00:31;;;;;;;16.50;10.60;;;;;7.00;96247.00;;;;8282049;28;20238;-70
2022/04/13 06:04:36;;;;;;;11.43;7.00;;;;;7.20;96248.00;;;;8283787;28;20275;-71
2022/04/13 06:08:39;;;;;;;9.67;6.03;;;;;7.50;96255.00;;;;8283241;28;20671;-71
2022/04/13 06:12:42;;;;;;;14.83;5.93;;;;;7.80;96260.00;;;;8287337;28;20221;-71
2022/04/13 06:16:46;;;;;;;14.30;6.17;;;;;8.20;96259.00;;;;8282156;28;20233;-71
2022/04/13 06:20:50;;;;;;;12.37;5.77;;;;;8.40;96269.00;;;;8283477;28;20238;-70
2022/04/13 06:24:54;;;;;;;10.80;5.70;;;;;8.70;96269.00;;;;8282161;28;20222;-69
2022/04/13 06:28:58;;;;;;;12.40;7.03;;;;;9.00;96280.00;;;;8281814;28;20309;-70
2022/04/13 06:33:01;;;;;;;14.50;5.30;;;;;9.30;96282.00;;;;8279784;28;20236;-70
2022/04/13 06:37:06;;;;;;;11.50;6.70;;;;;9.60;96280.00;;;;8281097;28;20241;-71
2022/04/13 06:41:09;;;;;;;15.93;6.73;;;;;9.90;96283.00;;;;8285551;28;20847;-69
2022/04/13 06:45:14;;;;;;;14.70;6.60;;;;;10.10;96279.00;;;;8284046;28;20232;-69
2022/04/13 06:49:17;;;;;;;12.13;6.73;;;;;10.40;96290.00;;;;8277961;28;20236;-68
2022/04/13 06:53:22;;;;;;;14.13;6.80;;;;;10.70;96285.00;;;;8281179;28;20236;-69
2022/04/13 06:57:25;;;;;;;13.17;6.70;;;;;11.00;96296.00;;;;8279542;28;20316;-69
2022/04/13 07:01:35;;;;;;;12.88;7.15;;;;;11.30;96302.00;;;;8282412;28;20238;-68
2022/04/13 07:05:39;;;;;;;14.10;6.47;;;;;11.70;96304.00;;;;8279051;28;20222;-69
2022/04/13 07:09:43;;;;;;;13.45;6.45;;;;;11.90;96296.00;;;;8278190;28;20223;-70
2022/04/13 07:13:47;;;;;;;11.88;6.30;;;;;12.10;96293.00;;;;8285768;28;20253;-71
2022/04/13 07:17:50;;;;;;;16.15;6.65;;;;;12.40;96297.00;;;;8278516;28;20308;-68
2022/04/13 07:21:53;;;;;;;14.57;6.93;;;;;12.70;96291.00;;;;8280384;28;20311;-69
2022/04/13 07:26:05;;;;;;;12.52;7.22;;;;;13.00;96292.00;;;;8279314;28;20225;-70
2022/04/13 07:30:09;;;;;;;12.05;6.10;;;;;13.30;96297.00;;;;8281489;28;21581;-69
2022/04/13 07:34:12;;;;;;;18.45;6.65;;;;;13.70;96295.00;;;;8280225;28;20334;-68
2022/04/13 07:38:15;;;;;;;15.85;7.38;;;;;14.30;96303.00;;;;8281883;28;20695;-71
2022/04/13 07:42:22;;;;;;;8.60;5.80;;;;;14.80;96312.00;;;;8283158;28;20310;-69
2022/04/13 07:46:27;;;;;;;12.15;5.97;;;;;15.40;96314.00;;;;8285560;28;20722;-71
2022/04/13 07:50:31;;;;;;;14.07;5.95;;;;;16.30;96317.00;;;;8278993;28;20248;-71
2022/04/13 07:54:35;;;;;;;13.20;6.28;;;;;17.00;96316.00;;;;8280113;28;20249;-70
2022/04/13 07:58:45;;;;;;;11.45;5.80;;;;;17.70;96307.00;;;;8278035;28;20222;-71
2022/04/13 08:02:48;;;;;;;9.82;6.10;;;;;18.10;96324.00;;;;8275456;28;20246;-74
2022/04/13 08:06:52;;;;;;;8.38;5.55;;;;;18.60;96331.00;;;;8277648;28;20428;-70
2022/04/13 08:10:55;;;;;;;12.68;6.22;;;;;18.80;96324.00;;;;8282689;28;20240;-70
2022/04/13 08:15:00;;;;;;;10.45;5.88;;;;;19.50;96328.00;;;;8280546;28;20728;-69
2022/04/13 08:19:05;;;;;;;8.73;5.82;;;;;19.70;96328.00;;;;8288893;28;20309;-70
2022/04/13 08:23:08;;;;;;;9.60;5.95;;;;;19.90;96329.00;;;;8279165;28;20216;-69
2022/04/13 08:27:11;;;;;;;9.15;5.72;;;;;20.40;96334.00;;;;8283849;28;20232;-72
2022/04/13 08:31:18;;;;;;;7.43;5.55;;;;;20.50;96344.00;;;;8280123;28;20308;-70
2022/04/13 08:35:21;;;;;;;8.15;5.25;;;;;20.50;96341.00;;;;8287875;28;20240;-71
2022/04/13 08:39:25;;;;;;;14.75;5.03;;;;;20.50;96347.00;;;;8284273;28;20832;-71
2022/04/13 08:43:35;;;;;;;7.15;4.60;;;;;20.80;96339.00;;;;8288132;28;20859;-70
2022/04/13 08:47:44;;;;;;;9.82;5.35;;;;;20.90;96343.00;;;;8285305;28;20301;-69
2022/04/13 08:51:48;;;;;;;7.90;4.90;;;;;21.10;96348.00;;;;8280712;28;20308;-69
2022/04/13 08:55:54;;;;;;;10.32;5.25;;;;;21.60;96346.00;;;;8292832;28;20222;-70
2022/04/13 09:00:07;;;;;;;7.43;4.88;;;;;22.10;96350.00;;;;8284871;28;20276;-68
2022/04/13 09:04:13;;;;;;;8.27;4.63;;;;;22.70;96346.00;;;;8282573;28;20733;-71
2022/04/13 09:08:20;;;;;;;7.68;4.95;;;;;23.20;96348.00;;;;8282608;28;20832;-71
2022/04/13 09:12:25;;;;;;;7.90;4.72;;;;;23.70;96353.00;;;;8295167;28;20233;-71
2022/04/13 09:16:28;;;;;;;7.50;4.97;;;;;24.00;96354.00;;;;8291435;28;20309;-71
2022/04/13 09:20:33;;;;;;;6.22;4.63;;;;;24.10;96361.00;;;;8284390;28;20572;-70
2022/04/13 09:25:07;;;;;;;7.78;4.88;;;;;24.30;96362.00;;;;8297113;28;20590;-70
2022/04/13 09:29:10;;;;;;;6.47;4.82;;;;;24.30;96365.00;;;;8298289;28;20619;-70
2022/04/13 09:33:47;;;;;;;5.68;4.88;;;;;24.20;96362.00;;;;8298301;28;20229;-69
2022/04/13 09:38:26;;;;;;;6.28;4.18;;;;;24.50;96365.00;;;;8297451;28;20579;-70
2022/04/13 09:42:29;;;;;;;5.72;4.10;;;;;24.40;96366.00;;;;8297887;28;20312;-70
2022/04/13 09:46:32;;;;;;;7.07;4.47;;;;;24.70;96370.00;;;;8298176;28;20615;-71
2022/04/13 09:51:06;;;;;;;8.43;4.80;;;;;24.90;96367.00;;;;8296449;28;20549;-71
2022/04/13 09:55:45;;;;;;;8.60;4.57;;;;;25.40;96362.00;;;;8297516;28;20305;-71
2022/04/13 09:59:54;;;;;;;10.30;5.45;;;;;26.00;96372.00;;;;8297452;28;20234;-70
2022/04/13 10:04:26;;;;;;;11.18;4.90;;;;;26.30;96364.00;;;;8297000;28;20253;-71
2022/04/13 10:14:01;;;;;;;7.20;4.93;;;;;26.80;96367.00;;;;8296949;28;20248;-70
2022/04/13 10:18:06;;;;;;;8.50;5.13;;;;;26.30;96367.00;;;;8294136;28;20530;-71
2022/04/13 10:22:55;;;;;;;6.30;4.35;;;;;26.20;96364.00;;;;8296514;28;20304;-70
2022/04/13 10:27:19;;;;;;;9.80;4.97;;;;;26.30;96360.00;;;;8290797;28;20263;-71
2022/04/13 10:31:59;;;;;;;7.82;4.20;;;;;26.30;96358.00;;;;8296708;28;20260;-71
2022/04/13 10:36:38;;;;;;;8.48;4.20;;;;;25.80;96363.00;;;;8296608;28;20218;-70
2022/04/13 10:41:15;;;;;;;8.15;4.28;;;;;25.90;96355.00;;;;8288274;28;20309;-70
2022/04/13 10:45:19;;;;;;;7.13;3.95;;;;;25.80;96353.00;;;;8296549;28;20655;-71
2022/04/13 10:49:55;;;;;;;4.60;3.75;;;;;26.10;96348.00;;;;8294988;28;20237;-72
2022/04/13 10:54:32;;;;;;;8.35;3.78;;;;;26.30;96343.00;;;;8294963;28;20317;-69
2022/04/13 10:59:09;;;;;;;6.30;3.70;;;;;26.40;96340.00;;;;8287036;28;20304;-71
2022/04/13 11:03:46;;;;;;;8.10;4.22;;;;;26.70;96331.00;;;;8294878;28;20304;-69
2022/04/13 11:07:53;;;;;;;5.85;4.05;;;;;26.70;96328.00;;;;8287899;28;20566;-70
2022/04/13 11:12:27;;;;;;;25.13;14.00;;;;;26.60;96325.00;;;;8294965;28;20321;-70
2022/04/13 11:17:07;;;;;;;13.40;8.15;;;;;26.90;96323.00;;;;8285341;28;20420;-69
2022/04/13 11:21:58;;;;;;;4.65;3.55;;;;;26.80;96324.00;;;;8294836;28;20226;-69
2022/04/13 11:26:28;;;;;;;7.30;4.20;;;;;27.00;96330.00;;;;8294121;28;20245;-69
2022/04/13 11:31:05;;;;;;;3.80;3.25;;;;;26.90;96324.00;;;;8294188;28;20624;-70
2022/04/13 11:35:46;;;;;;;7.35;4.00;;;;;27.00;96321.00;;;;8295150;28;20229;-69
2022/04/13 11:40:14;;;;;;;7.68;4.05;;;;;27.20;96325.00;;;;8293641;28;20226;-69
2022/04/13 11:44:18;;;;;;;6.40;3.97;;;;;27.50;96319.00;;;;8294624;28;20221;-70
2022/04/13 11:48:52;;;;;;;7.47;3.60;;;;;27.30;96316.00;;;;8295072;28;20233;-69
2022/04/13 11:53:00;;;;;;;5.25;3.70;;;;;27.20;96328.00;;;;8294275;28;20257;-69
2022/04/13 11:57:04;;;;;;;7.03;3.65;;;;;27.10;96315.00;;;;8295041;28;20257;-70
2022/04/13 12:01:45;;;;;;;7.10;3.80;;;;;27.10;96320.00;;;;8294114;28;20276;-69
2022/04/13 12:06:16;;;;;;;5.78;3.38;;;;;27.00;96326.00;;;;8294451;28;20225;-69
2022/04/13 12:10:58;;;;;;;5.45;3.38;;;;;27.00;96314.00;;;;8294329;28;20232;-69
2022/04/13 12:15:02;;;;;;;4.70;3.60;;;;;26.90;96319.00;;;;8300448;28;20304;-69
2022/04/13 12:19:07;;;;;;;7.85;4.05;;;;;26.90;96316.00;;;;8299198;28;20248;-69
2022/04/13 12:23:44;;;;;;;8.48;3.60;;;;;26.90;96316.00;;;;8300990;28;20309;-69
2022/04/13 12:28:04;;;;;;;4.07;3.50;;;;;26.90;96309.00;;;;8290371;28;20224;-69
2022/04/13 12:32:25;;;;;;;8.05;3.55;;;;;27.00;96305.00;;;;8300590;28;20222;-69
2022/04/13 12:37:00;;;;;;;8.00;3.22;;;;;26.90;96315.00;;;;8299960;28;20560;-69
2022/04/13 12:41:34;;;;;;;5.50;3.47;;;;;27.10;96305.00;;;;8299774;28;20312;-69
2022/04/13 12:45:39;;;;;;;5.70;3.63;;;;;27.00;96301.00;;;;8299416;28;20233;-68
2022/04/13 12:49:42;;;;;;;5.05;3.33;;;;;26.80;96296.00;;;;8299687;28;20523;-69
2022/04/13 12:54:16;;;;;;;5.93;3.63;;;;;26.70;96301.00;;;;8299935;28;20289;-68
2022/04/13 12:58:19;;;;;;;5.72;3.75;;;;;26.70;96297.00;;;;8299352;28;20312;-68
2022/04/13 13:02:24;;;;;;;6.18;3.92;;;;;26.80;96295.00;;;;8298852;28;20578;-69
2022/04/13 13:06:30;;;;;;;4.65;3.58;;;;;26.70;96287.00;;;;8299072;28;20218;-68
2022/04/13 13:11:08;;;;;;;5.50;3.55;;;;;26.80;96289.00;;;;8299188;28;20614;-68
2022/04/13 13:15:42;;;;;;;7.22;4.15;;;;;27.10;96282.00;;;;8298988;28;20218;-69
2022/04/13 13:20:21;;;;;;;6.95;3.78;;;;;27.30;96276.00;;;;8299459;28;20547;-68
2022/04/13 13:24:55;;;;;;;5.40;3.88;;;;;27.30;96279.00;;;;8297742;28;20225;-68
2022/04/13 13:29:00;;;;;;;4.70;3.97;;;;;27.20;96281.00;;;;8298157;28;20553;-68
2022/04/13 13:33:09;;;;;;;8.68;4.15;;;;;27.20;96283.00;;;;8298544;28;20232;-68
2022/04/13 13:37:31;;;;;;;4.63;3.08;;;;;27.30;96274.00;;;;8299057;28;20614;-68
2022/04/13 13:41:34;;;;;;;3.25;2.95;;;;;27.60;96281.00;;;;8297967;28;20304;-68
2022/04/13 13:45:39;;;;;;;7.03;3.88;;;;;27.60;96269.00;;;;8297878;28;20218;-69
2022/04/13 13:49:43;;;;;;;3.83;3.13;;;;;28.00;96259.00;;;;8299219;28;24356;-68
2022/04/13 13:54:21;;;;;;;4.25;3.28;;;;;28.70;96265.00;;;;8297638;28;20236;-68
2022/04/13 13:58:25;;;;;;;5.30;3.20;;;;;28.40;96260.00;;;;8297765;28;20218;-68
2022/04/13 14:02:59;;;;;;;4.45;3.45;;;;;28.30;96264.00;;;;8297866;28;20230;-67
2022/04/13 14:07:03;;;;;;;6.65;3.40;;;;;28.70;96258.00;;;;8297434;28;20222;-67
2022/04/13 14:11:39;;;;;;;3.92;2.90;;;;;28.70;96263.00;;;;8297058;28;20305;-68
2022/04/13 14:16:13;;;;;;;6.03;3.17;;;;;28.50;96258.00;;;;8290918;28;20312;-68
2022/04/13 14:20:50;;;;;;;7.18;2.80;;;;;28.70;96254.00;;;;8296683;28;20260;-69
2022/04/13 14:24:53;;;;;;;4.53;2.72;;;;;28.90;96249.00;;;;8295912;28;20268;-69
2022/04/13 14:28:58;;;;;;;4.80;3.40;;;;;28.90;96249.00;;;;8296633;28;20310;-69
2022/04/13 14:33:01;;;;;;;3.53;2.80;;;;;28.70;96235.00;;;;8296422;28;20329;-69
2022/04/13 14:37:36;;;;;;;6.40;3.40;;;;;28.80;96240.00;;;;8295811;28;20233;-69
2022/04/13 14:41:39;;;;;;;4.80;2.63;;;;;28.50;96241.00;;;;8295408;28;20226;-71
2022/04/13 14:46:17;;;;;;;3.75;2.17;;;;;27.90;96243.00;;;;8296842;28;20305;-69
2022/04/13 14:50:21;;;;;;;2.95;2.45;;;;;27.60;96238.00;;;;8295921;28;20229;-68
2022/04/13 14:54:25;;;;;;;5.35;2.63;;;;;27.40;96231.00;;;;8295809;28;20232;-68
2022/04/13 14:58:28;;;;;;;3.85;2.53;;;;;27.00;96228.00;;;;8296764;28;20309;-68
2022/04/13 15:02:34;;;;;;;3.00;2.47;;;;;26.60;96231.00;;;;8295344;28;20232;-68
2022/04/13 15:06:37;;;;;;;6.82;2.85;;;;;26.30;96230.00;;;;8287255;28;20225;-68
2022/04/13 15:11:05;;;;;;;3.72;2.30;;;;;26.00;96231.00;;;;8296071;28;20313;-68
2022/04/13 15:15:13;;;;;;;3.15;2.53;;;;;25.80;96234.00;;;;8295637;28;20316;-68
2022/04/13 15:19:20;;;;;;;5.82;2.80;;;;;25.80;96235.00;;;;8295713;28;20651;-67
2022/04/13 15:23:33;;;;;;;4.93;2.70;;;;;25.70;96230.00;;;;8295207;28;20233;-68
2022/04/13 15:28:07;;;;;;;3.55;2.58;;;;;25.70;96234.00;;;;8288088;28;20324;-68
2022/04/13 15:32:10;;;;;;;5.43;3.03;;;;;25.60;96229.00;;;;8295021;28;20225;-68
2022/04/13 15:36:49;;;;;;;3.22;2.60;;;;;25.50;96222.00;;;;8295078;28;20301;-68
2022/04/13 15:40:53;;;;;;;14.88;3.10;;;;;25.40;96229.00;;;;8295511;28;20293;-67
2022/04/13 15:44:58;;;;;;;4.78;2.92;;;;;25.20;96228.00;;;;8295636;28;20226;-68
2022/04/13 15:49:01;;;;;;;12.32;4.13;;;;;24.90;96236.00;;;;8300778;28;20217;-68
2022/04/13 15:53:07;;;;;;;7.28;3.65;;;;;24.70;96235.00;;;;8301934;28;20623;-68
2022/04/13 15:57:41;;;;;;;6.15;3.22;;;;;24.50;96244.00;;;;8302294;28;20304;-71
2022/04/13 16:02:04;;;;;;;5.70;2.95;;;;;24.30;96237.00;;;;8301043;28;20742;-68
2022/04/13 16:06:38;;;;;;;13.32;3.33;;;;;24.10;96245.00;;;;8298595;28;20226;-67
2022/04/13 16:11:16;;;;;;;15.73;4.03;;;;;24.00;96242.00;;;;8289210;28;20651;-68
2022/04/13 16:15:51;;;;;;;8.25;3.65;;;;;23.90;96239.00;;;;8297094;28;20245;-69
2022/04/13 16:20:28;;;;;;;6.75;3.20;;;;;23.70;96238.00;;;;8300442;28;20260;-68
2022/04/13 16:25:05;;;;;;;4.43;2.80;;;;;23.70;96238.00;;;;8300048;28;20248;-68
2022/04/13 16:29:44;;;;;;;3.88;2.90;;;;;23.50;96238.00;;;;8298415;28;20297;-64
2022/04/13 16:34:18;;;;;;;5.53;3.28;;;;;23.30;96234.00;;;;8300869;28;20241;-64
2022/04/13 16:38:55;;;;;;;4.82;3.22;;;;;23.20;96242.00;;;;8298822;28;20397;-65
2022/04/13 16:43:32;;;;;;;4.85;3.35;;;;;23.00;96247.00;;;;8299341;28;20233;-64
2022/04/13 16:48:10;;;;;;;6.55;3.60;;;;;23.00;96250.00;;;;8299408;28;20305;-65
2022/04/13 16:52:44;;;;;;;3.42;2.83;;;;;23.00;96250.00;;;;8300127;28;20284;-65
2022/04/13 16:57:21;;;;;;;4.03;3.60;;;;;22.90;96248.00;;;;8298882;28;20224;-66
2022/04/13 17:01:58;;;;;;;8.32;4.78;;;;;22.70;96245.00;;;;8298627;28;20629;-64
2022/04/13 17:06:35;;;;;;;5.40;2.80;;;;;22.50;96248.00;;;;8299404;28;20237;-64
2022/04/13 17:11:14;;;;;;;4.00;3.28;;;;;22.20;96256.00;;;;8291312;28;20218;-66
2022/04/13 17:15:46;;;;;;;5.05;3.17;;;;;22.00;96261.00;;;;8295124;28;20228;-68
2022/04/13 17:20:23;;;;;;;5.50;2.90;;;;;21.80;96253.00;;;;8297763;28;20245;-66
2022/04/13 17:25:00;;;;;;;5.40;3.13;;;;;21.60;96253.00;;;;8298689;28;20711;-68
2022/04/13 17:29:39;;;;;;;4.03;3.28;;;;;21.40;96257.00;;;;8295055;28;20645;-67
2022/04/13 17:34:13;;;;;;;4.18;2.67;;;;;21.10;96264.00;;;;8297618;28;20290;-67
2022/04/13 17:38:16;;;;;;;5.47;3.95;;;;;20.90;96263.00;;;;8298214;28;20636;-68
2022/04/13 17:42:53;;;;;;;6.25;3.38;;;;;20.70;96262.00;;;;8298163;28;20304;-66
2022/04/13 17:47:31;;;;;;;4.45;3.45;;;;;20.30;96259.00;;;;8297702;28;20687;-66
2022/04/13 17:52:05;;;;;;;5.43;3.20;;;;;20.00;96265.00;;;;8297286;28;20300;-67
2022/04/13 17:56:42;;;;;;;7.38;3.47;;;;;19.80;96264.00;;;;8298724;28;20236;-66
2022/04/13 18:01:21;;;;;;;7.25;4.00;;;;;19.70;96269.00;;;;8297371;28;20614;-67
2022/04/13 18:05:57;;;;;;;5.80;4.00;;;;;19.60;96273.00;;;;8296736;28;20226;-67
2022/04/13 18:15:06;;;;;;;11.68;5.85;;;;;19.30;96273.00;;;;8297782;28;20214;-66
2022/04/13 18:19:40;;;;;;;6.78;4.07;;;;;19.10;96270.00;;;;8296543;28;20301;-67
2022/04/13 18:24:19;;;;;;;7.80;4.25;;;;;18.90;96278.00;;;;8296661;28;20313;-67
2022/04/13 18:28:53;;;;;;;6.65;3.88;;;;;18.70;96276.00;;;;8297179;28;20329;-66
2022/04/13 18:33:38;;;;;;;7.32;4.13;;;;;18.50;96276.00;;;;8296765;28;20622;-67
2022/04/13 18:38:06;;;;;;;12.25;4.75;;;;;18.30;96279.00;;;;8295861;28;20333;-66
2022/04/13 18:42:42;;;;;;;6.10;4.60;;;;;18.20;96285.00;;;;8296631;28;20222;-67
2022/04/13 18:46:46;;;;;;;5.93;4.18;;;;;18.10;96280.00;;;;8296380;28;20245;-66
2022/04/13 18:51:23;;;;;;;10.82;4.43;;;;;17.90;96285.00;;;;8296370;28;20300;-65
2022/04/13 18:56:01;;;;;;;8.13;5.00;;;;;17.70;96290.00;;;;8294899;28;20264;-65
2022/04/13 19:00:39;;;;;;;17.70;5.25;;;;;17.50;96289.00;;;;8296425;28;20245;-65
2022/04/13 19:05:14;;;;;;;10.57;4.88;;;;;17.30;96292.00;;;;8289543;28;20308;-66
2022/04/13 19:09:17;;;;;;;7.95;4.63;;;;;17.10;96298.00;;;;8295264;28;20214;-66
2022/04/13 19:13:20;;;;;;;9.10;4.70;;;;;16.90;96296.00;;;;8296241;28;20313;-66
2022/04/13 19:17:25;;;;;;;10.57;4.90;;;;;16.60;96298.00;;;;8295903;28;20229;-66
2022/04/13 19:21:28;;;;;;;7.53;5.53;;;;;16.30;96296.00;;;;8295103;28;20221;-67
2022/04/13 19:26:05;;;;;;;6.07;4.70;;;;;16.10;96292.00;;;;8295701;28;20312;-66
2022/04/13 19:30:43;;;;;;;6.82;5.00;;;;;16.00;96292.00;;;;8295557;28;20217;-66
2022/04/13 19:35:15;;;;;;;8.85;4.78;;;;;16.00;96294.00;;;;8295928;28;20297;-66
2022/04/13 19:39:18;;;;;;;6.35;4.70;;;;;16.00;96294.00;;;;8295770;28;20324;-67
2022/04/13 19:43:56;;;;;;;8.55;5.10;;;;;16.00;96297.00;;;;8291691;28;20232;-68
2022/04/13 19:48:31;;;;;;;9.45;4.47;;;;;15.90;96301.00;;;;8295113;28;20224;-66
2022/04/13 19:53:09;;;;;;;7.30;4.68;;;;;15.90;96298.00;;;;8295603;28;20596;-66
2022/04/13 19:57:43;;;;;;;7.47;4.43;;;;;15.80;96296.00;;;;8294840;28;20236;-66
2022/04/13 20:02:20;;;;;;;11.50;4.63;;;;;15.80;96294.00;;;;8294722;28;20219;-66
2022/04/13 20:06:57;;;;;;;6.55;4.35;;;;;15.80;96289.00;;;;8294968;28;20309;-66
2022/04/13 20:11:02;;;;;;;8.77;4.13;;;;;15.90;96299.00;;;;8295024;28;20308;-65
2022/04/13 20:15:08;;;;;;;9.32;4.75;;;;;15.80;96306.00;;;;8294289;28;20370;-66
2022/04/13 20:19:15;;;;;;;6.80;4.50;;;;;15.80;96300.00;;;;8295054;28;20301;-66
2022/04/13 20:23:19;;;;;;;8.93;4.75;;;;;15.80;96304.00;;;;8295372;28;20524;-66
2022/04/13 20:27:23;;;;;;;8.38;4.20;;;;;15.70;96297.00;;;;8294771;28;20221;-65
2022/04/13 20:31:27;;;;;;;8.32;4.22;;;;;15.70;96301.00;;;;8294699;28;20279;-66
2022/04/13 20:35:31;;;;;;;7.30;4.72;;;;;15.60;96298.00;;;;8300875;28;20244;-66
2022/04/13 20:40:08;;;;;;;7.05;5.10;;;;;15.50;96305.00;;;;8300527;28;20225;-66
2022/04/13 20:44:13;;;;;;;8.50;4.88;;;;;15.40;96292.00;;;;8296215;28;20228;-67
2022/04/13 20:48:16;;;;;;;6.88;4.35;;;;;15.30;96298.00;;;;8300425;28;20303;-67
2022/04/13 20:52:25;;;;;;;9.15;4.45;;;;;15.30;96295.00;;;;8300435;28;20487;-67
2022/04/13 20:57:01;;;;;;;5.93;4.53;;;;;15.10;96290.00;;;;8299663;28;20257;-67
2022/04/13 21:01:07;;;;;;;10.93;5.68;;;;;14.70;96291.00;;;;8300400;28;20260;-66
2022/04/13 21:05:41;;;;;;;10.27;5.85;;;;;14.30;96293.00;;;;8299756;28;20389;-66
2022/04/13 21:09:45;;;;;;;10.27;5.30;;;;;14.10;96297.00;;;;8299120;28;20217;-66
2022/04/13 21:13:48;;;;;;;9.02;6.05;;;;;13.90;96293.00;;;;8300331;28;20224;-67
2022/04/13 21:17:53;;;;;;;11.40;6.20;;;;;13.70;96298.00;;;;8298962;28;20301;-66
2022/04/13 21:21:56;;;;;;;11.27;6.13;;;;;13.40;96297.00;;;;8299601;28;20255;-66
2022/04/13 21:26:30;;;;;;;9.43;6.07;;;;;13.20;96291.00;;;;8299015;28;20234;-67
2022/04/13 21:30:33;;;;;;;11.07;6.78;;;;;13.00;96300.00;;;;8299183;28;20218;-66